Time;durP1;ratioP1;P1;durP2;ratioP2;P2;SDS_P1;SDS_P2;PMS_P1;PMS_P2;Temp;Humidity;BMP_temperature;BMP_pressure;BME280_temperature;BME280_humidity;BME280_pressure;Samples;Min_cycle;Max_cycle;Signal;HPM_P1;HPM_P2
2022/08/19 00:01:26;;;;;;;5.28;2.78;;;;;;;;;;4406659;32;20146;-67
2022/08/19 00:03:53;;;;;;;5.68;2.67;;;;;;;;;;4392075;32;20525;-67
2022/08/19 00:06:20;;;;;;;7.65;2.58;;;;;;;;;;4392404;32;20154;-68
2022/08/19 00:08:47;;;;;;;7.12;2.60;;;;;;;;;;4405196;32;20101;-68
2022/08/19 00:11:13;;;;;;;4.90;2.78;;;;;;;;;;4404694;32;20124;-67
2022/08/19 00:13:40;;;;;;;5.72;2.67;;;;;;;;;;4406129;32;20065;-67
2022/08/19 00:16:07;;;;;;;5.72;2.72;;;;;;;;;;4395559;32;20443;-68
2022/08/19 00:18:34;;;;;;;7.40;3.10;;;;;;;;;;4407651;32;20073;-67
2022/08/19 00:21:01;;;;;;;7.18;2.67;;;;;;;;;;4408259;32;20070;-66
2022/08/19 00:23:28;;;;;;;5.10;3.22;;;;;;;;;;4395876;32;20079;-67
2022/08/19 00:25:54;;;;;;;4.80;2.72;;;;;;;;;;4408371;32;20101;-68
2022/08/19 00:28:21;;;;;;;6.62;3.00;;;;;;;;;;4412748;32;20081;-67
2022/08/19 00:30:48;;;;;;;5.55;2.78;;;;;;;;;;4411856;32;20080;-66
2022/08/19 00:33:16;;;;;;;5.82;3.20;;;;;;;;;;4407844;32;20073;-67
2022/08/19 00:35:42;;;;;;;4.60;2.80;;;;;;;;;;4407847;32;20066;-67
2022/08/19 00:38:09;;;;;;;8.57;3.03;;;;;;;;;;4409005;32;20518;-66
2022/08/19 00:40:36;;;;;;;4.62;2.78;;;;;;;;;;4407762;32;20518;-68
2022/08/19 00:43:12;;;;;;;6.60;2.75;;;;;;;;;;4409069;32;20459;-68
2022/08/19 00:45:43;;;;;;;3.25;2.05;;;;;;;;;;4409201;32;20089;-66
2022/08/19 00:48:10;;;;;;;6.05;2.47;;;;;;;;;;4409000;32;20076;-66
2022/08/19 00:50:37;;;;;;;5.47;2.70;;;;;;;;;;4407284;32;20085;-67
2022/08/19 00:53:04;;;;;;;5.32;2.97;;;;;;;;;;4395185;32;20177;-67
2022/08/19 00:55:31;;;;;;;2.72;1.60;;;;;;;;;;4395759;32;20467;-67
2022/08/19 00:58:04;;;;;;;5.95;2.72;;;;;;;;;;4407598;32;20081;-68
2022/08/19 01:00:32;;;;;;;6.57;3.15;;;;;;;;;;4409025;32;20069;-69
2022/08/19 01:02:59;;;;;;;4.18;2.65;;;;;;;;;;4407209;32;20146;-68
2022/08/19 01:05:28;;;;;;;4.62;3.00;;;;;;;;;;4407850;32;20152;-68
2022/08/19 01:07:57;;;;;;;6.03;3.05;;;;;;;;;;4407268;32;20072;-68
2022/08/19 01:10:31;;;;;;;8.93;3.75;;;;;;;;;;4396236;32;20074;-68
2022/08/19 01:12:59;;;;;;;6.93;3.28;;;;;;;;;;4409465;32;20550;-68
2022/08/19 01:15:40;;;;;;;6.72;3.42;;;;;;;;;;4409954;32;20153;-68
2022/08/19 01:18:10;;;;;;;6.80;3.87;;;;;;;;;;4397204;32;20231;-68
2022/08/19 01:20:37;;;;;;;9.68;4.05;;;;;;;;;;4398865;32;20087;-67
2022/08/19 01:23:04;;;;;;;7.72;3.78;;;;;;;;;;4411463;32;20081;-66
2022/08/19 01:25:49;;;;;;;8.55;4.32;;;;;;;;;;4412375;32;20144;-66
2022/08/19 01:28:25;;;;;;;9.35;4.18;;;;;;;;;;4397904;32;20085;-68
2022/08/19 01:30:53;;;;;;;8.80;4.28;;;;;;;;;;4410102;32;20081;-67
2022/08/19 01:33:20;;;;;;;10.23;4.18;;;;;;;;;;4409389;32;20465;-68
2022/08/19 01:35:51;;;;;;;10.73;4.35;;;;;;;;;;4381911;32;20175;-67
2022/08/19 01:38:24;;;;;;;8.73;3.67;;;;;;;;;;4394471;32;20077;-68
2022/08/19 01:40:51;;;;;;;9.35;3.90;;;;;;;;;;4394329;32;20249;-68
2022/08/19 01:43:18;;;;;;;7.62;4.10;;;;;;;;;;4406630;32;20545;-67
2022/08/19 01:45:46;;;;;;;8.48;3.75;;;;;;;;;;4408106;32;20499;-67
2022/08/19 01:48:13;;;;;;;12.57;3.78;;;;;;;;;;4394537;32;20166;-68
2022/08/19 01:50:40;;;;;;;10.52;4.28;;;;;;;;;;4406543;32;20093;-68
2022/08/19 01:53:09;;;;;;;8.68;3.90;;;;;;;;;;4393493;32;20225;-68
2022/08/19 01:55:38;;;;;;;9.52;4.30;;;;;;;;;;4381539;32;20077;-67
2022/08/19 01:58:06;;;;;;;8.43;4.07;;;;;;;;;;4406804;32;20150;-68
2022/08/19 02:00:33;;;;;;;9.80;4.43;;;;;;;;;;4393862;32;20078;-67
2022/08/19 02:03:00;;;;;;;9.90;3.83;;;;;;;;;;4394290;32;20080;-68
2022/08/19 02:05:29;;;;;;;11.35;4.20;;;;;;;;;;4406169;32;20073;-68
2022/08/19 02:07:56;;;;;;;12.45;3.65;;;;;;;;;;4393942;32;20116;-67
2022/08/19 02:10:23;;;;;;;6.60;3.28;;;;;;;;;;4406362;32;20081;-68
2022/08/19 02:12:50;;;;;;;8.88;4.03;;;;;;;;;;4407420;32;20092;-66
2022/08/19 02:15:19;;;;;;;7.78;3.53;;;;;;;;;;4407848;32;20499;-67
2022/08/19 02:17:46;;;;;;;5.90;3.40;;;;;;;;;;4393602;32;20084;-67
2022/08/19 02:20:13;;;;;;;9.93;3.72;;;;;;;;;;4406218;32;20152;-66
2022/08/19 02:22:42;;;;;;;7.97;3.28;;;;;;;;;;4393742;32;20088;-67
2022/08/19 02:25:11;;;;;;;8.60;3.67;;;;;;;;;;4407468;32;20153;-68
2022/08/19 02:27:38;;;;;;;8.48;3.50;;;;;;;;;;4406096;32;20080;-68
2022/08/19 02:30:07;;;;;;;4.75;2.60;;;;;;;;;;4406147;32;20100;-68
2022/08/19 02:32:33;;;;;;;6.07;2.80;;;;;;;;;;4393279;32;20162;-67
2022/08/19 02:35:00;;;;;;;5.93;2.80;;;;;;;;;;4407702;32;20165;-68
2022/08/19 02:40:12;;;;;;;5.45;3.00;;;;;;;;;;4406257;32;20085;-67
2022/08/19 02:42:40;;;;;;;5.80;2.80;;;;;;;;;;4393237;32;20077;-67
2022/08/19 02:45:07;;;;;;;3.62;2.45;;;;;;;;;;4406987;32;20512;-68
2022/08/19 02:47:35;;;;;;;7.18;3.05;;;;;;;;;;4406066;32;20141;-67
2022/08/19 02:50:03;;;;;;;4.82;2.92;;;;;;;;;;4380542;32;20105;-67
2022/08/19 02:52:31;;;;;;;6.40;3.10;;;;;;;;;;4405265;32;20160;-68
2022/08/19 02:54:58;;;;;;;5.47;2.55;;;;;;;;;;4406250;32;20097;-67
2022/08/19 02:57:25;;;;;;;5.32;2.58;;;;;;;;;;4407521;32;20089;-68
2022/08/19 02:59:51;;;;;;;5.37;2.62;;;;;;;;;;4407941;32;20549;-68
2022/08/19 03:02:18;;;;;;;5.85;2.67;;;;;;;;;;4393394;32;20160;-66
2022/08/19 03:04:45;;;;;;;7.95;2.25;;;;;;;;;;4392970;32;20083;-68
2022/08/19 03:07:14;;;;;;;5.32;2.28;;;;;;;;;;4405631;32;20096;-67
2022/08/19 03:09:42;;;;;;;5.95;2.62;;;;;;;;;;4405697;32;20081;-67
2022/08/19 03:12:09;;;;;;;4.22;2.47;;;;;;;;;;4407743;32;20157;-68
2022/08/19 03:14:36;;;;;;;4.93;2.37;;;;;;;;;;4408006;32;20161;-67
2022/08/19 03:17:04;;;;;;;5.10;2.12;;;;;;;;;;4393374;32;20168;-68
2022/08/19 03:19:31;;;;;;;3.78;1.92;;;;;;;;;;4393014;32;20157;-67
2022/08/19 03:21:58;;;;;;;7.90;2.17;;;;;;;;;;4406670;32;20161;-67
2022/08/19 03:24:25;;;;;;;5.15;2.53;;;;;;;;;;4405191;32;20528;-67
2022/08/19 03:26:57;;;;;;;4.75;2.28;;;;;;;;;;4406616;32;20090;-68
2022/08/19 03:29:27;;;;;;;4.07;2.47;;;;;;;;;;4405418;32;20092;-68
2022/08/19 03:31:54;;;;;;;4.75;2.50;;;;;;;;;;4405414;32;20072;-68
2022/08/19 03:34:26;;;;;;;5.97;2.55;;;;;;;;;;4406744;32;20077;-67
2022/08/19 03:36:54;;;;;;;5.68;2.45;;;;;;;;;;4380597;32;20082;-67
2022/08/19 03:39:22;;;;;;;6.28;2.30;;;;;;;;;;4406322;32;20065;-68
2022/08/19 03:41:50;;;;;;;6.62;2.60;;;;;;;;;;4393271;32;20087;-68
2022/08/19 03:44:21;;;;;;;3.72;2.10;;;;;;;;;;4392452;32;20086;-67
2022/08/19 03:46:51;;;;;;;7.37;3.00;;;;;;;;;;4406577;32;20073;-68
2022/08/19 03:49:18;;;;;;;7.43;3.28;;;;;;;;;;4392407;32;20180;-67
2022/08/19 03:51:45;;;;;;;5.75;2.55;;;;;;;;;;4404803;32;20145;-67
2022/08/19 03:54:14;;;;;;;7.20;2.62;;;;;;;;;;4392183;32;20084;-68
2022/08/19 03:56:42;;;;;;;4.70;2.40;;;;;;;;;;4406279;32;20069;-67
2022/08/19 03:59:13;;;;;;;7.25;2.65;;;;;;;;;;4404750;32;20141;-67
2022/08/19 04:01:40;;;;;;;8.20;2.60;;;;;;;;;;4392905;32;20065;-68
2022/08/19 04:04:07;;;;;;;3.67;2.33;;;;;;;;;;4406258;32;20069;-67
2022/08/19 04:06:35;;;;;;;6.03;2.53;;;;;;;;;;4392317;32;20081;-67
2022/08/19 04:09:04;;;;;;;4.18;2.35;;;;;;;;;;4404972;32;20139;-67
2022/08/19 04:11:35;;;;;;;4.47;2.30;;;;;;;;;;4405015;32;20085;-68
2022/08/19 04:14:03;;;;;;;5.28;2.15;;;;;;;;;;4379545;32;20521;-68
2022/08/19 04:16:29;;;;;;;4.47;2.17;;;;;;;;;;4392455;32;20085;-67
2022/08/19 04:18:59;;;;;;;6.35;2.50;;;;;;;;;;4406572;32;20081;-68
2022/08/19 04:21:27;;;;;;;6.68;2.28;;;;;;;;;;4392453;32;20069;-68
2022/08/19 04:23:54;;;;;;;4.32;2.05;;;;;;;;;;4392211;32;20516;-67
2022/08/19 04:26:24;;;;;;;7.45;3.95;;;;;;;;;;4405221;32;20062;-68
2022/08/19 04:28:51;;;;;;;4.25;2.83;;;;;;;;;;4404666;32;20444;-67
2022/08/19 04:31:21;;;;;;;4.35;2.58;;;;;;;;;;4392102;32;20173;-68
2022/08/19 04:33:48;;;;;;;4.43;2.42;;;;;;;;;;4404849;32;20169;-67
2022/08/19 04:36:25;;;;;;;4.75;2.65;;;;;;;;;;4404666;32;20468;-67
2022/08/19 04:38:55;;;;;;;3.75;2.42;;;;;;;;;;4405108;32;20096;-67
2022/08/19 04:44:07;;;;;;;7.20;3.20;;;;;;;;;;4405466;32;20073;-67
2022/08/19 04:46:34;;;;;;;5.05;2.40;;;;;;;;;;4392247;32;20089;-68
2022/08/19 04:49:02;;;;;;;4.10;2.40;;;;;;;;;;4391887;32;20532;-66
2022/08/19 04:51:31;;;;;;;4.00;2.40;;;;;;;;;;4405099;32;20101;-68
2022/08/19 04:53:59;;;;;;;6.93;2.60;;;;;;;;;;4379532;32;20077;-67
2022/08/19 04:56:26;;;;;;;5.90;2.75;;;;;;;;;;4379417;32;20140;-68
2022/08/19 04:58:54;;;;;;;6.80;2.70;;;;;;;;;;4405795;32;20074;-67
2022/08/19 05:01:24;;;;;;;4.03;2.35;;;;;;;;;;4406334;32;20076;-68
2022/08/19 05:03:51;;;;;;;4.45;2.40;;;;;;;;;;4409102;32;20150;-67
2022/08/19 05:06:19;;;;;;;4.35;2.60;;;;;;;;;;4407052;32;20596;-67
2022/08/19 05:08:46;;;;;;;4.95;2.50;;;;;;;;;;4407292;32;20520;-69
2022/08/19 05:11:28;;;;;;;4.50;2.72;;;;;;;;;;4394826;32;20511;-68
2022/08/19 05:13:55;;;;;;;4.70;2.47;;;;;;;;;;4394954;32;20146;-67
2022/08/19 05:16:22;;;;;;;6.12;1.87;;;;;;;;;;4407042;32;20519;-68
2022/08/19 05:24:23;;;;;;;7.53;2.28;;;;;;;;;;4384061;32;20093;-68
2022/08/19 05:26:51;;;;;;;6.37;2.60;;;;;;;;;;4408578;32;20136;-68
2022/08/19 05:29:20;;;;;;;4.62;2.62;;;;;;;;;;4406742;32;20088;-69
2022/08/19 05:31:49;;;;;;;3.97;2.15;;;;;;;;;;4407065;32;20077;-68
2022/08/19 05:34:21;;;;;;;6.25;2.62;;;;;;;;;;4408500;32;20070;-68
2022/08/19 05:36:49;;;;;;;7.25;2.22;;;;;;;;;;4394525;32;20543;-68
2022/08/19 05:39:19;;;;;;;4.37;2.40;;;;;;;;;;4406922;32;20084;-68
2022/08/19 05:41:52;;;;;;;7.35;2.58;;;;;;;;;;4406522;32;20142;-68
2022/08/19 05:44:21;;;;;;;6.60;2.65;;;;;;;;;;4406618;32;20123;-68
2022/08/19 05:46:47;;;;;;;7.37;2.33;;;;;;;;;;4394244;32;20069;-68
2022/08/19 05:49:15;;;;;;;4.82;1.92;;;;;;;;;;4407009;32;20076;-68
2022/08/19 05:51:42;;;;;;;6.95;2.62;;;;;;;;;;4393863;32;20452;-69
2022/08/19 05:54:13;;;;;;;6.32;2.65;;;;;;;;;;4393822;32;20092;-68
2022/08/19 05:56:41;;;;;;;5.62;2.42;;;;;;;;;;4407946;32;20082;-68
2022/08/19 05:59:10;;;;;;;6.20;2.90;;;;;;;;;;4406459;32;20448;-68
2022/08/19 06:01:39;;;;;;;5.35;2.42;;;;;;;;;;4406586;32;20086;-67
2022/08/19 06:04:06;;;;;;;4.57;2.60;;;;;;;;;;4381340;32;20177;-68
2022/08/19 06:06:34;;;;;;;5.22;2.58;;;;;;;;;;4394049;32;20078;-67
2022/08/19 06:09:02;;;;;;;5.43;2.33;;;;;;;;;;4394085;32;20168;-67
2022/08/19 06:11:38;;;;;;;5.00;2.25;;;;;;;;;;4393764;32;20081;-68
2022/08/19 06:14:17;;;;;;;7.10;2.53;;;;;;;;;;4406613;32;20089;-66
2022/08/19 06:16:44;;;;;;;5.93;2.80;;;;;;;;;;4406139;32;20168;-67
2022/08/19 06:19:16;;;;;;;4.82;2.50;;;;;;;;;;4393559;32;20599;-67
2022/08/19 06:21:45;;;;;;;5.40;2.50;;;;;;;;;;4405849;32;20511;-68
2022/08/19 06:24:14;;;;;;;6.95;2.67;;;;;;;;;;4406094;32;20082;-68
2022/08/19 06:26:43;;;;;;;7.18;2.50;;;;;;;;;;4393399;32;20081;-67
2022/08/19 06:29:13;;;;;;;2.80;2.10;;;;;;;;;;4393381;32;20469;-66
2022/08/19 06:31:49;;;;;;;4.53;2.70;;;;;;;;;;4406119;32;20074;-67
2022/08/19 06:34:16;;;;;;;4.03;2.70;;;;;;;;;;4406078;32;20521;-69
2022/08/19 06:36:46;;;;;;;3.80;2.40;;;;;;;;;;4406142;32;20089;-66
2022/08/19 06:39:21;;;;;;;5.10;2.35;;;;;;;;;;4393608;32;20083;-67
2022/08/19 06:41:51;;;;;;;4.87;2.42;;;;;;;;;;4393163;32;20141;-66
2022/08/19 06:44:23;;;;;;;7.82;2.55;;;;;;;;;;4393244;32;20159;-67
2022/08/19 06:46:49;;;;;;;5.82;2.53;;;;;;;;;;4381007;32;20140;-68
2022/08/19 06:49:17;;;;;;;4.47;2.47;;;;;;;;;;4407402;32;20534;-67
2022/08/19 06:51:47;;;;;;;5.35;2.55;;;;;;;;;;4393720;32;20090;-69
2022/08/19 06:54:15;;;;;;;5.30;2.40;;;;;;;;;;4393368;32;20087;-67
2022/08/19 06:56:41;;;;;;;4.47;2.45;;;;;;;;;;4405959;32;20162;-67
2022/08/19 06:59:11;;;;;;;5.68;2.33;;;;;;;;;;4405831;32;20525;-66
2022/08/19 07:01:45;;;;;;;6.32;2.33;;;;;;;;;;4406198;32;20081;-67
2022/08/19 07:04:12;;;;;;;4.05;1.90;;;;;;;;;;4393553;32;20103;-65
2022/08/19 07:06:39;;;;;;;8.50;2.40;;;;;;;;;;4407078;32;20559;-66
2022/08/19 07:09:06;;;;;;;7.60;2.50;;;;;;;;;;4393124;32;20072;-68
2022/08/19 07:11:33;;;;;;;9.65;2.45;;;;;;;;;;4405714;32;20136;-67
2022/08/19 07:14:00;;;;;;;4.72;2.40;;;;;;;;;;4406658;32;20492;-67
2022/08/19 07:16:27;;;;;;;4.07;2.00;;;;;;;;;;4393184;32;20085;-67
2022/08/19 07:18:56;;;;;;;5.53;2.25;;;;;;;;;;4405472;32;20088;-67
2022/08/19 07:21:27;;;;;;;4.53;2.40;;;;;;;;;;4406707;32;20077;-67
2022/08/19 07:23:55;;;;;;;3.72;2.28;;;;;;;;;;4393178;32;20101;-67
2022/08/19 07:26:27;;;;;;;5.43;2.60;;;;;;;;;;4380044;32;20097;-68
2022/08/19 07:28:55;;;;;;;4.20;2.62;;;;;;;;;;4392641;32;20137;-67
2022/08/19 07:31:23;;;;;;;4.43;2.40;;;;;;;;;;4380449;32;20086;-69
2022/08/19 07:33:52;;;;;;;5.90;2.72;;;;;;;;;;4405072;32;20073;-67
2022/08/19 07:36:22;;;;;;;7.07;2.58;;;;;;;;;;4405406;32;20093;-68
2022/08/19 07:38:50;;;;;;;6.03;2.50;;;;;;;;;;4392633;32;20169;-66
2022/08/19 07:41:21;;;;;;;10.60;2.70;;;;;;;;;;4392278;32;20529;-68
2022/08/19 07:43:49;;;;;;;4.18;2.25;;;;;;;;;;4392902;32;20102;-67
2022/08/19 07:46:20;;;;;;;4.15;2.60;;;;;;;;;;4392546;32;20073;-67
2022/08/19 07:48:47;;;;;;;5.87;3.00;;;;;;;;;;4392501;32;20108;-67
2022/08/19 07:51:17;;;;;;;5.90;2.22;;;;;;;;;;4379398;32;20512;-67
2022/08/19 07:53:45;;;;;;;10.48;2.30;;;;;;;;;;4392670;32;20097;-67
2022/08/19 07:56:13;;;;;;;6.72;2.72;;;;;;;;;;4393063;32;20077;-68
2022/08/19 07:58:41;;;;;;;6.15;2.42;;;;;;;;;;4392518;32;20069;-68
2022/08/19 08:01:13;;;;;;;9.38;2.53;;;;;;;;;;4404615;32;20069;-66
2022/08/19 08:09:12;;;;;;;5.07;1.97;;;;;;;;;;4407296;32;20068;-66
2022/08/19 08:11:48;;;;;;;1.12;1.02;;;;;;;;;;4392927;32;20455;-67
2022/08/19 08:14:28;;;;;;;10.18;2.25;;;;;;;;;;4404574;32;20077;-67
2022/08/19 08:16:55;;;;;;;4.47;2.45;;;;;;;;;;4379793;32;20074;-66
2022/08/19 08:19:23;;;;;;;6.43;2.53;;;;;;;;;;4405629;32;20081;-68
2022/08/19 08:21:50;;;;;;;6.78;2.50;;;;;;;;;;4391993;32;20092;-68
2022/08/19 08:24:18;;;;;;;6.75;2.50;;;;;;;;;;4404865;32;20182;-67
2022/08/19 08:26:45;;;;;;;4.03;2.30;;;;;;;;;;4392214;32;20560;-66
2022/08/19 08:29:12;;;;;;;6.75;2.35;;;;;;;;;;4380045;32;20104;-67
2022/08/19 08:31:44;;;;;;;5.68;1.87;;;;;;;;;;4406362;32;20088;-67
2022/08/19 08:34:12;;;;;;;6.53;2.75;;;;;;;;;;4406250;32;20081;-67
2022/08/19 08:36:41;;;;;;;5.65;2.10;;;;;;;;;;4397846;32;20096;-68
2022/08/19 08:39:13;;;;;;;6.05;2.37;;;;;;;;;;4399839;32;20065;-66
2022/08/19 08:41:58;;;;;;;5.78;2.58;;;;;;;;;;4383102;32;20518;-68
2022/08/19 08:44:52;;;;;;;5.18;2.28;;;;;;;;;;4408048;32;20064;-66
2022/08/19 08:47:21;;;;;;;3.12;2.03;;;;;;;;;;4408195;32;20066;-68
2022/08/19 08:49:59;;;;;;;3.67;2.40;;;;;;;;;;4407439;32;20073;-66
2022/08/19 08:52:29;;;;;;;7.75;2.50;;;;;;;;;;4394928;32;20081;-68
2022/08/19 08:55:04;;;;;;;6.32;2.45;;;;;;;;;;4382929;32;20080;-68
2022/08/19 08:57:48;;;;;;;3.33;2.05;;;;;;;;;;4407196;32;20062;-66
2022/08/19 09:00:26;;;;;;;1.95;1.23;;;;;;;;;;4407592;32;20081;-66
2022/08/19 09:02:54;;;;;;;6.12;2.40;;;;;;;;;;4382051;32;20089;-68
2022/08/19 09:05:23;;;;;;;7.22;2.95;;;;;;;;;;4394350;32;20467;-68
2022/08/19 09:08:13;;;;;;;5.68;2.62;;;;;;;;;;4394470;32;20148;-68
2022/08/19 09:10:54;;;;;;;6.55;2.35;;;;;;;;;;4394607;32;20079;-68
2022/08/19 09:13:21;;;;;;;4.00;2.62;;;;;;;;;;4407179;32;20084;-67
2022/08/19 09:16:12;;;;;;;5.85;2.50;;;;;;;;;;4409144;32;20131;-69
2022/08/19 09:18:48;;;;;;;4.80;2.35;;;;;;;;;;4394940;32;20436;-67
2022/08/19 09:21:16;;;;;;;6.37;2.50;;;;;;;;;;4382312;32;20150;-67
2022/08/19 09:23:43;;;;;;;3.62;2.35;;;;;;;;;;4382048;32;20173;-67
2022/08/19 09:26:13;;;;;;;3.35;2.15;;;;;;;;;;4408413;32;20149;-66
2022/08/19 09:28:44;;;;;;;7.62;2.40;;;;;;;;;;4408471;32;20496;-67
2022/08/19 09:31:12;;;;;;;4.90;2.22;;;;;;;;;;4406931;32;20152;-66
2022/08/19 09:33:38;;;;;;;3.60;2.20;;;;;;;;;;4406501;32;20144;-66
2022/08/19 09:36:10;;;;;;;0.65;0.65;;;;;;;;;;4407327;32;20164;-67
2022/08/19 09:38:40;;;;;;;2.53;1.50;;;;;;;;;;4382660;32;20108;-67
2022/08/19 09:41:12;;;;;;;6.22;2.20;;;;;;;;;;4406704;32;20150;-67
2022/08/19 09:43:38;;;;;;;3.95;2.47;;;;;;;;;;4406595;32;20077;-67
2022/08/19 09:46:06;;;;;;;8.27;2.75;;;;;;;;;;4406149;32;20093;-67
2022/08/19 09:48:33;;;;;;;5.75;2.55;;;;;;;;;;4394169;32;20586;-67
2022/08/19 09:51:08;;;;;;;4.87;2.08;;;;;;;;;;4394093;32;20099;-67
2022/08/19 09:53:36;;;;;;;4.12;2.55;;;;;;;;;;4393429;32;20093;-66
2022/08/19 09:56:04;;;;;;;4.15;2.37;;;;;;;;;;4393807;32;20168;-67
2022/08/19 09:58:31;;;;;;;6.78;2.92;;;;;;;;;;4393709;32;20100;-68
2022/08/19 10:00:59;;;;;;;6.30;2.12;;;;;;;;;;4408335;32;20081;-67
2022/08/19 10:03:26;;;;;;;7.03;2.35;;;;;;;;;;4406523;32;20066;-67
2022/08/19 10:05:54;;;;;;;4.80;2.37;;;;;;;;;;4381289;32;20149;-68
2022/08/19 10:08:26;;;;;;;4.53;2.05;;;;;;;;;;4393783;32;20523;-67
2022/08/19 10:10:54;;;;;;;2.28;1.83;;;;;;;;;;4406213;32;20216;-67
2022/08/19 10:13:24;;;;;;;6.37;2.00;;;;;;;;;;4393636;32;20158;-67
2022/08/19 10:15:53;;;;;;;3.20;2.20;;;;;;;;;;4406851;32;20182;-68
2022/08/19 10:18:20;;;;;;;3.50;2.05;;;;;;;;;;4393770;32;20152;-68
2022/08/19 10:20:48;;;;;;;3.85;2.05;;;;;;;;;;4405836;32;20540;-67
2022/08/19 10:23:15;;;;;;;5.20;2.30;;;;;;;;;;4406293;32;20148;-67
2022/08/19 10:25:42;;;;;;;4.50;2.42;;;;;;;;;;4406797;32;20144;-67
2022/08/19 10:28:11;;;;;;;4.12;2.28;;;;;;;;;;4393595;32;20077;-67
2022/08/19 10:30:39;;;;;;;4.37;2.20;;;;;;;;;;4394164;32;20149;-67
2022/08/19 10:33:06;;;;;;;2.78;2.22;;;;;;;;;;4405775;32;20503;-66
2022/08/19 10:35:33;;;;;;;3.42;2.00;;;;;;;;;;4381346;32;20085;-67
2022/08/19 10:38:01;;;;;;;4.78;2.05;;;;;;;;;;4393873;32;20088;-67
2022/08/19 10:40:28;;;;;;;3.20;2.10;;;;;;;;;;4406008;32;20093;-67
2022/08/19 10:42:56;;;;;;;4.95;2.00;;;;;;;;;;4393700;32;20437;-67
2022/08/19 10:45:25;;;;;;;4.70;2.20;;;;;;;;;;4405896;32;20077;-68
2022/08/19 10:47:54;;;;;;;4.70;2.30;;;;;;;;;;4381305;32;20087;-67
2022/08/19 10:53:10;;;;;;;2.97;2.00;;;;;;;;;;4405627;32;20096;-67
2022/08/19 10:58:24;;;;;;;2.70;2.10;;;;;;;;;;4407169;32;20084;-68
2022/08/19 11:00:53;;;;;;;5.65;2.17;;;;;;;;;;4405989;32;20494;-67
2022/08/19 11:03:20;;;;;;;7.57;2.30;;;;;;;;;;4380089;32;20591;-68
2022/08/19 11:05:48;;;;;;;3.25;2.10;;;;;;;;;;4405590;32;20073;-66
2022/08/19 11:08:15;;;;;;;4.35;2.05;;;;;;;;;;4393043;32;20070;-66
2022/08/19 11:10:42;;;;;;;3.35;1.75;;;;;;;;;;4407289;32;20081;-67
2022/08/19 11:13:09;;;;;;;3.95;2.33;;;;;;;;;;4392995;32;20156;-66
2022/08/19 11:15:37;;;;;;;2.87;2.53;;;;;;;;;;4410956;32;20089;-69
2022/08/19 11:18:03;;;;;;;6.40;2.50;;;;;;;;;;4408355;32;20168;-67
2022/08/19 11:20:31;;;;;;;4.68;2.30;;;;;;;;;;4406999;32;20190;-67
2022/08/19 11:22:57;;;;;;;2.65;2.05;;;;;;;;;;4380296;32;20077;-67
2022/08/19 11:25:24;;;;;;;2.70;1.83;;;;;;;;;;4393120;32;20069;-67
2022/08/19 11:27:51;;;;;;;8.45;2.83;;;;;;;;;;4405501;32;20154;-67
2022/08/19 11:30:18;;;;;;;6.18;2.40;;;;;;;;;;4406724;32;20089;-66
2022/08/19 11:32:45;;;;;;;4.28;2.22;;;;;;;;;;4392238;32;20092;-68
2022/08/19 11:35:11;;;;;;;4.90;2.83;;;;;;;;;;4405212;32;20083;-68
2022/08/19 11:37:39;;;;;;;4.90;2.15;;;;;;;;;;4405263;32;20084;-67
2022/08/19 11:40:07;;;;;;;3.42;2.45;;;;;;;;;;4393048;32;20124;-65
2022/08/19 11:45:19;;;;;;;6.32;2.03;;;;;;;;;;4405382;32;20092;-69
2022/08/19 11:47:47;;;;;;;2.22;1.83;;;;;;;;;;4380158;32;20080;-68
2022/08/19 11:50:14;;;;;;;4.10;2.00;;;;;;;;;;4380025;32;20082;-67
2022/08/19 11:52:42;;;;;;;5.43;1.95;;;;;;;;;;4404867;32;20092;-67
2022/08/19 11:55:09;;;;;;;4.20;1.83;;;;;;;;;;4405137;32;20080;-68
2022/08/19 11:57:36;;;;;;;2.83;2.08;;;;;;;;;;4406276;32;20506;-67
2022/08/19 12:00:06;;;;;;;2.95;2.25;;;;;;;;;;4392029;32;20526;-67
2022/08/19 12:02:32;;;;;;;1.70;1.20;;;;;;;;;;4405123;32;20425;-67
2022/08/19 12:05:02;;;;;;;4.62;2.17;;;;;;;;;;4404846;32;20058;-67
2022/08/19 12:07:32;;;;;;;2.75;2.00;;;;;;;;;;4406022;32;20069;-67
2022/08/19 12:10:00;;;;;;;3.05;2.00;;;;;;;;;;4381674;32;20078;-68
2022/08/19 12:12:27;;;;;;;5.45;2.75;;;;;;;;;;4407991;32;20612;-66
2022/08/19 12:14:57;;;;;;;2.08;1.87;;;;;;;;;;4395559;32;20444;-66
2022/08/19 12:17:26;;;;;;;3.67;1.92;;;;;;;;;;4383247;32;20477;-67
2022/08/19 12:19:57;;;;;;;2.60;1.90;;;;;;;;;;4409653;32;20094;-67
2022/08/19 12:22:24;;;;;;;2.78;2.10;;;;;;;;;;4395228;32;20180;-66
2022/08/19 12:24:52;;;;;;;2.97;2.10;;;;;;;;;;4407650;32;20451;-67
2022/08/19 12:27:20;;;;;;;5.80;2.50;;;;;;;;;;4409507;32;20106;-67
2022/08/19 12:29:46;;;;;;;4.80;2.53;;;;;;;;;;4382908;32;20070;-67
2022/08/19 12:32:13;;;;;;;4.43;2.65;;;;;;;;;;4407866;32;20092;-67
2022/08/19 12:34:40;;;;;;;5.03;2.25;;;;;;;;;;4407581;32;20160;-67
2022/08/19 12:37:07;;;;;;;4.85;2.30;;;;;;;;;;4407667;32;20467;-67
2022/08/19 12:39:41;;;;;;;3.97;1.98;;;;;;;;;;4407754;32;20160;-67
2022/08/19 12:42:09;;;;;;;2.78;2.15;;;;;;;;;;4395376;32;20456;-66
2022/08/19 12:44:39;;;;;;;3.97;2.50;;;;;;;;;;4382521;32;20100;-67
2022/08/19 12:47:06;;;;;;;3.80;2.30;;;;;;;;;;4395387;32;20161;-67
2022/08/19 12:49:36;;;;;;;2.60;1.98;;;;;;;;;;4408069;32;20182;-67
2022/08/19 12:52:07;;;;;;;3.33;2.00;;;;;;;;;;4407578;32;20085;-66
2022/08/19 12:54:35;;;;;;;3.83;2.25;;;;;;;;;;4382261;32;20081;-67
2022/08/19 12:57:07;;;;;;;2.40;2.03;;;;;;;;;;4395611;32;20080;-67
2022/08/19 12:59:34;;;;;;;4.12;2.20;;;;;;;;;;4395227;32;20152;-67
2022/08/19 13:02:01;;;;;;;4.07;2.20;;;;;;;;;;4408649;32;20165;-67
2022/08/19 13:04:27;;;;;;;4.15;2.08;;;;;;;;;;4409291;32;20078;-66
2022/08/19 13:06:54;;;;;;;3.12;1.90;;;;;;;;;;4407309;32;20132;-67
2022/08/19 13:09:21;;;;;;;2.62;1.33;;;;;;;;;;4407406;32;20097;-67
2022/08/19 13:11:48;;;;;;;2.83;2.15;;;;;;;;;;4407270;32;20076;-68
2022/08/19 13:14:15;;;;;;;4.30;2.30;;;;;;;;;;4394327;32;20104;-67
2022/08/19 13:16:42;;;;;;;4.60;2.50;;;;;;;;;;4408781;32;20092;-67
2022/08/19 13:19:10;;;;;;;3.22;1.95;;;;;;;;;;4407989;32;20089;-67
2022/08/19 13:21:37;;;;;;;5.47;2.12;;;;;;;;;;4406723;32;20153;-67
2022/08/19 13:24:04;;;;;;;4.80;2.20;;;;;;;;;;4407131;32;20103;-67
2022/08/19 13:26:30;;;;;;;3.15;2.10;;;;;;;;;;4406801;32;20092;-67
2022/08/19 13:34:31;;;;;;;4.03;2.28;;;;;;;;;;4407532;32;20267;-66
2022/08/19 13:36:58;;;;;;;3.92;1.90;;;;;;;;;;4394780;32;20089;-67
2022/08/19 13:39:25;;;;;;;3.20;2.10;;;;;;;;;;4406730;32;20073;-66
2022/08/19 13:41:52;;;;;;;5.30;2.15;;;;;;;;;;4406803;32;20173;-67
2022/08/19 13:44:19;;;;;;;3.62;1.85;;;;;;;;;;4381868;32;20081;-67
2022/08/19 13:46:48;;;;;;;6.75;2.00;;;;;;;;;;4406943;32;20070;-66
2022/08/19 13:49:15;;;;;;;4.82;2.50;;;;;;;;;;4406754;32;20519;-67
2022/08/19 13:51:43;;;;;;;4.50;1.98;;;;;;;;;;4406724;32;20077;-68
2022/08/19 13:54:11;;;;;;;2.12;1.60;;;;;;;;;;4407679;32;20170;-67
2022/08/19 13:56:42;;;;;;;3.85;1.95;;;;;;;;;;4408160;32;20080;-67
2022/08/19 13:59:09;;;;;;;2.53;1.75;;;;;;;;;;4395429;32;20500;-67
2022/08/19 14:01:36;;;;;;;4.80;2.00;;;;;;;;;;4394145;32;20080;-67
2022/08/19 14:04:03;;;;;;;2.50;1.87;;;;;;;;;;4381093;32;20073;-67
2022/08/19 14:06:30;;;;;;;4.28;2.10;;;;;;;;;;4393738;32;20133;-66
2022/08/19 14:08:57;;;;;;;3.12;1.95;;;;;;;;;;4394316;32;20511;-67
2022/08/19 14:11:23;;;;;;;2.53;1.70;;;;;;;;;;4394018;32;20149;-66
2022/08/19 14:13:51;;;;;;;4.50;2.12;;;;;;;;;;4393815;32;20156;-66
2022/08/19 14:16:17;;;;;;;3.42;1.85;;;;;;;;;;4406051;32;20530;-67
2022/08/19 14:18:45;;;;;;;6.45;1.92;;;;;;;;;;4406108;32;20093;-66
2022/08/19 14:21:20;;;;;;;3.17;1.98;;;;;;;;;;4406465;32;20081;-67
2022/08/19 14:23:47;;;;;;;6.43;2.00;;;;;;;;;;4393642;32;20078;-66
2022/08/19 14:26:16;;;;;;;3.33;1.90;;;;;;;;;;4406886;32;20065;-67
2022/08/19 14:28:43;;;;;;;4.18;1.60;;;;;;;;;;4406342;32;20531;-66
2022/08/19 14:31:12;;;;;;;2.95;1.83;;;;;;;;;;4393611;32;20080;-67
2022/08/19 14:33:40;;;;;;;4.93;2.00;;;;;;;;;;4392438;32;20077;-65
2022/08/19 14:36:07;;;;;;;3.00;1.80;;;;;;;;;;4407664;32;20076;-68
2022/08/19 14:38:34;;;;;;;4.15;1.95;;;;;;;;;;4405828;32;20534;-67
2022/08/19 14:41:16;;;;;;;3.05;1.90;;;;;;;;;;4381399;32;20091;-67
2022/08/19 14:43:47;;;;;;;2.25;1.77;;;;;;;;;;4406500;32;20077;-66
2022/08/19 14:46:15;;;;;;;2.47;1.70;;;;;;;;;;4381612;32;20115;-66
2022/08/19 14:48:42;;;;;;;1.23;0.80;;;;;;;;;;4393395;32;20081;-67
2022/08/19 14:51:10;;;;;;;2.42;1.62;;;;;;;;;;4393093;32;20077;-65
2022/08/19 14:53:37;;;;;;;3.50;2.35;;;;;;;;;;4405373;32;20077;-66
2022/08/19 14:56:11;;;;;;;3.08;1.60;;;;;;;;;;4380942;32;20104;-66
2022/08/19 14:58:40;;;;;;;3.75;1.60;;;;;;;;;;4406380;32;20095;-66
2022/08/19 15:01:07;;;;;;;2.78;1.95;;;;;;;;;;4381212;32;20081;-66
2022/08/19 15:03:34;;;;;;;2.97;1.60;;;;;;;;;;4393374;32;20525;-66
2022/08/19 15:06:02;;;;;;;4.22;2.37;;;;;;;;;;4406341;32;20161;-66
2022/08/19 15:08:30;;;;;;;3.95;2.05;;;;;;;;;;4406154;32;20073;-66
2022/08/19 15:10:58;;;;;;;4.87;2.30;;;;;;;;;;4393779;32;20132;-66
2022/08/19 15:13:26;;;;;;;3.25;1.83;;;;;;;;;;4393118;32;20166;-67
2022/08/19 15:15:53;;;;;;;2.92;2.20;;;;;;;;;;4405809;32;20073;-67
2022/08/19 15:18:21;;;;;;;2.92;2.17;;;;;;;;;;4393422;32;20184;-67
2022/08/19 15:20:48;;;;;;;2.22;1.70;;;;;;;;;;4406272;32;20603;-65
2022/08/19 15:23:16;;;;;;;6.50;2.45;;;;;;;;;;4392266;32;20074;-67